sensor_id;sensor_type;location;lat;lon;timestamp;temperature;humidity
13569;DHT22;6856;51.460;7.158;2023-11-21T00:01:30;11.30;67.70
13569;DHT22;6856;51.460;7.158;2023-11-21T00:04:05;11.10;67.50
13569;DHT22;6856;51.460;7.158;2023-11-21T00:06:39;10.90;67.40
13569;DHT22;6856;51.460;7.158;2023-11-21T00:09:13;11.10;67.50
13569;DHT22;6856;51.460;7.158;2023-11-21T00:11:47;11.10;67.70
13569;DHT22;6856;51.460;7.158;2023-11-21T00:14:21;11.10;67.60
13569;DHT22;6856;51.460;7.158;2023-11-21T00:16:57;11.10;67.60
13569;DHT22;6856;51.460;7.158;2023-11-21T00:19:32;11.30;67.80
13569;DHT22;6856;51.460;7.158;2023-11-21T00:22:06;11.10;67.60
13569;DHT22;6856;51.460;7.158;2023-11-21T00:24:40;11.10;67.60
13569;DHT22;6856;51.460;7.158;2023-11-21T00:27:14;11.10;67.70
13569;DHT22;6856;51.460;7.158;2023-11-21T00:29:48;11.10;67.50
13569;DHT22;6856;51.460;7.158;2023-11-21T00:32:23;11.10;67.70
13569;DHT22;6856;51.460;7.158;2023-11-21T00:35:00;11.10;67.80
13569;DHT22;6856;51.460;7.158;2023-11-21T00:37:33;11.10;67.80
13569;DHT22;6856;51.460;7.158;2023-11-21T00:40:08;11.10;67.80
13569;DHT22;6856;51.460;7.158;2023-11-21T00:42:42;11.10;68.00
13569;DHT22;6856;51.460;7.158;2023-11-21T00:45:16;11.30;68.10
13569;DHT22;6856;51.460;7.158;2023-11-21T00:47:51;11.10;68.00
13569;DHT22;6856;51.460;7.158;2023-11-21T00:50:24;11.10;68.10
13569;DHT22;6856;51.460;7.158;2023-11-21T00:52:59;11.10;68.10
13569;DHT22;6856;51.460;7.158;2023-11-21T00:55:34;11.10;68.10
13569;DHT22;6856;51.460;7.158;2023-11-21T00:58:07;11.20;68.20
13569;DHT22;6856;51.460;7.158;2023-11-21T01:00:42;11.10;68.20
13569;DHT22;6856;51.460;7.158;2023-11-21T01:03:19;11.10;68.20
13569;DHT22;6856;51.460;7.158;2023-11-21T01:05:52;11.10;68.20
13569;DHT22;6856;51.460;7.158;2023-11-21T01:08:26;11.10;68.30
13569;DHT22;6856;51.460;7.158;2023-11-21T01:11:01;11.20;69.00
13569;DHT22;6856;51.460;7.158;2023-11-21T01:13:34;11.10;68.30
13569;DHT22;6856;51.460;7.158;2023-11-21T01:16:10;11.10;68.40
13569;DHT22;6856;51.460;7.158;2023-11-21T01:18:46;11.10;68.40
13569;DHT22;6856;51.460;7.158;2023-11-21T01:21:20;11.10;68.40
13569;DHT22;6856;51.460;7.158;2023-11-21T01:23:54;11.10;68.40
13569;DHT22;6856;51.460;7.158;2023-11-21T01:26:28;11.10;68.40
13569;DHT22;6856;51.460;7.158;2023-11-21T01:29:02;11.10;68.40
13569;DHT22;6856;51.460;7.158;2023-11-21T01:31:36;11.10;69.20
13569;DHT22;6856;51.460;7.158;2023-11-21T01:34:12;11.10;68.50
13569;DHT22;6856;51.460;7.158;2023-11-21T01:36:48;11.10;68.50
13569;DHT22;6856;51.460;7.158;2023-11-21T01:39:22;11.10;68.50
13569;DHT22;6856;51.460;7.158;2023-11-21T01:41:57;11.10;68.60
13569;DHT22;6856;51.460;7.158;2023-11-21T01:44:32;11.40;68.80
13569;DHT22;6856;51.460;7.158;2023-11-21T01:47:06;11.10;68.70
13569;DHT22;6856;51.460;7.158;2023-11-21T01:49:45;11.10;68.70
13569;DHT22;6856;51.460;7.158;2023-11-21T01:52:20;11.10;68.80
13569;DHT22;6856;51.460;7.158;2023-11-21T01:54:54;11.20;68.80
13569;DHT22;6856;51.460;7.158;2023-11-21T01:57:28;11.20;68.80
13569;DHT22;6856;51.460;7.158;2023-11-21T02:00:03;11.20;68.90
13569;DHT22;6856;51.460;7.158;2023-11-21T02:02:48;11.20;68.90
13569;DHT22;6856;51.460;7.158;2023-11-21T02:05:24;11.10;68.90
13569;DHT22;6856;51.460;7.158;2023-11-21T02:07:58;11.20;69.00
13569;DHT22;6856;51.460;7.158;2023-11-21T02:10:33;11.20;68.90
13569;DHT22;6856;51.460;7.158;2023-11-21T02:13:08;11.20;68.90
13569;DHT22;6856;51.460;7.158;2023-11-21T02:15:43;11.20;69.00
13569;DHT22;6856;51.460;7.158;2023-11-21T02:18:17;11.20;69.10
13569;DHT22;6856;51.460;7.158;2023-11-21T02:20:53;11.20;69.00
13569;DHT22;6856;51.460;7.158;2023-11-21T02:23:28;11.20;69.00
13569;DHT22;6856;51.460;7.158;2023-11-21T02:26:02;11.20;69.00
13569;DHT22;6856;51.460;7.158;2023-11-21T02:28:36;11.20;69.00
13569;DHT22;6856;51.460;7.158;2023-11-21T02:31:10;11.20;69.00
13569;DHT22;6856;51.460;7.158;2023-11-21T02:33:44;11.20;69.10
13569;DHT22;6856;51.460;7.158;2023-11-21T02:36:18;11.20;69.20
13569;DHT22;6856;51.460;7.158;2023-11-21T02:38:55;11.20;69.20
13569;DHT22;6856;51.460;7.158;2023-11-21T02:41:29;11.20;69.10
13569;DHT22;6856;51.460;7.158;2023-11-21T02:44:03;11.20;69.30
13569;DHT22;6856;51.460;7.158;2023-11-21T02:46:38;11.20;69.50
13569;DHT22;6856;51.460;7.158;2023-11-21T02:49:12;11.20;69.40
13569;DHT22;6856;51.460;7.158;2023-11-21T02:51:46;11.40;69.60
13569;DHT22;6856;51.460;7.158;2023-11-21T02:54:22;11.30;69.60
13569;DHT22;6856;51.460;7.158;2023-11-21T02:56:56;11.20;69.50
13569;DHT22;6856;51.460;7.158;2023-11-21T02:59:30;11.20;69.60
13569;DHT22;6856;51.460;7.158;2023-11-21T03:02:04;11.20;69.50
13569;DHT22;6856;51.460;7.158;2023-11-21T03:04:40;11.20;69.60
13569;DHT22;6856;51.460;7.158;2023-11-21T03:07:14;11.20;69.50
13569;DHT22;6856;51.460;7.158;2023-11-21T03:09:49;11.20;69.50
13569;DHT22;6856;51.460;7.158;2023-11-21T03:12:23;11.20;69.60
13569;DHT22;6856;51.460;7.158;2023-11-21T03:14:59;11.20;69.60
13569;DHT22;6856;51.460;7.158;2023-11-21T03:17:34;11.50;69.80
13569;DHT22;6856;51.460;7.158;2023-11-21T03:20:09;11.20;69.50
13569;DHT22;6856;51.460;7.158;2023-11-21T03:22:44;11.20;69.60
13569;DHT22;6856;51.460;7.158;2023-11-21T03:25:19;11.10;69.40
13569;DHT22;6856;51.460;7.158;2023-11-21T03:27:52;11.30;69.50
13569;DHT22;6856;51.460;7.158;2023-11-21T03:30:26;11.20;69.40
13569;DHT22;6856;51.460;7.158;2023-11-21T03:33:00;11.30;69.50
13569;DHT22;6856;51.460;7.158;2023-11-21T03:35:34;11.30;69.50
13569;DHT22;6856;51.460;7.158;2023-11-21T03:38:10;11.30;69.50
13569;DHT22;6856;51.460;7.158;2023-11-21T03:40:45;11.30;69.50
13569;DHT22;6856;51.460;7.158;2023-11-21T03:43:21;11.30;69.40
13569;DHT22;6856;51.460;7.158;2023-11-21T03:45:56;11.30;69.40
13569;DHT22;6856;51.460;7.158;2023-11-21T03:48:30;11.50;69.60
13569;DHT22;6856;51.460;7.158;2023-11-21T03:51:05;11.20;69.50
13569;DHT22;6856;51.460;7.158;2023-11-21T03:53:39;11.30;69.60
13569;DHT22;6856;51.460;7.158;2023-11-21T03:56:15;11.30;69.50
13569;DHT22;6856;51.460;7.158;2023-11-21T03:58:50;11.40;69.60
13569;DHT22;6856;51.460;7.158;2023-11-21T04:01:24;11.30;69.50
13569;DHT22;6856;51.460;7.158;2023-11-21T04:03:58;11.30;69.60
13569;DHT22;6856;51.460;7.158;2023-11-21T04:06:33;11.30;69.50
13569;DHT22;6856;51.460;7.158;2023-11-21T04:09:08;11.30;69.50
13569;DHT22;6856;51.460;7.158;2023-11-21T04:11:43;11.30;69.50
13569;DHT22;6856;51.460;7.158;2023-11-21T04:14:17;11.30;69.50
13569;DHT22;6856;51.460;7.158;2023-11-21T04:16:51;11.30;69.60
13569;DHT22;6856;51.460;7.158;2023-11-21T04:19:26;11.30;69.60
13569;DHT22;6856;51.460;7.158;2023-11-21T04:22:00;11.30;69.60
13569;DHT22;6856;51.460;7.158;2023-11-21T04:24:33;11.30;69.60
13569;DHT22;6856;51.460;7.158;2023-11-21T04:27:09;11.50;69.70
13569;DHT22;6856;51.460;7.158;2023-11-21T04:29:42;11.30;69.50
13569;DHT22;6856;51.460;7.158;2023-11-21T04:32:16;11.60;69.70
13569;DHT22;6856;51.460;7.158;2023-11-21T04:34:50;11.30;69.50
13569;DHT22;6856;51.460;7.158;2023-11-21T04:37:24;11.30;69.40
13569;DHT22;6856;51.460;7.158;2023-11-21T04:39:57;11.30;69.40
13569;DHT22;6856;51.460;7.158;2023-11-21T04:42:33;11.30;69.30
13569;DHT22;6856;51.460;7.158;2023-11-21T04:45:09;11.30;69.40
13569;DHT22;6856;51.460;7.158;2023-11-21T04:47:44;11.20;69.20
13569;DHT22;6856;51.460;7.158;2023-11-21T04:50:18;11.20;69.10
13569;DHT22;6856;51.460;7.158;2023-11-21T04:52:52;11.20;69.20
13569;DHT22;6856;51.460;7.158;2023-11-21T04:55:26;11.20;69.20
13569;DHT22;6856;51.460;7.158;2023-11-21T04:58:04;11.20;69.20
13569;DHT22;6856;51.460;7.158;2023-11-21T05:00:38;11.20;69.00
13569;DHT22;6856;51.460;7.158;2023-11-21T05:03:12;11.20;69.20
13569;DHT22;6856;51.460;7.158;2023-11-21T05:05:46;11.20;69.10
13569;DHT22;6856;51.460;7.158;2023-11-21T05:08:20;11.20;69.20
13569;DHT22;6856;51.460;7.158;2023-11-21T05:10:54;11.20;69.20
13569;DHT22;6856;51.460;7.158;2023-11-21T05:13:29;11.20;69.20
13569;DHT22;6856;51.460;7.158;2023-11-21T05:16:08;11.40;69.50
13569;DHT22;6856;51.460;7.158;2023-11-21T05:18:41;11.20;69.40
13569;DHT22;6856;51.460;7.158;2023-11-21T05:21:16;11.20;69.40
13569;DHT22;6856;51.460;7.158;2023-11-21T05:23:53;11.20;69.30
13569;DHT22;6856;51.460;7.158;2023-11-21T05:26:29;11.20;69.40
13569;DHT22;6856;51.460;7.158;2023-11-21T05:29:04;11.20;69.40
13569;DHT22;6856;51.460;7.158;2023-11-21T05:31:38;11.40;69.60
13569;DHT22;6856;51.460;7.158;2023-11-21T05:34:13;11.20;69.40
13569;DHT22;6856;51.460;7.158;2023-11-21T05:36:50;11.20;69.40
13569;DHT22;6856;51.460;7.158;2023-11-21T05:39:23;11.20;69.50
13569;DHT22;6856;51.460;7.158;2023-11-21T05:41:57;11.20;69.40
13569;DHT22;6856;51.460;7.158;2023-11-21T05:44:33;11.20;69.40
13569;DHT22;6856;51.460;7.158;2023-11-21T05:47:08;11.20;69.40
13569;DHT22;6856;51.460;7.158;2023-11-21T05:49:42;11.20;69.40
13569;DHT22;6856;51.460;7.158;2023-11-21T05:52:17;11.20;69.40
13569;DHT22;6856;51.460;7.158;2023-11-21T05:54:51;11.20;69.50
13569;DHT22;6856;51.460;7.158;2023-11-21T05:57:25;11.20;69.40
13569;DHT22;6856;51.460;7.158;2023-11-21T06:00:00;11.40;69.60
13569;DHT22;6856;51.460;7.158;2023-11-21T06:02:42;11.20;69.40
13569;DHT22;6856;51.460;7.158;2023-11-21T06:05:17;11.30;69.50
13569;DHT22;6856;51.460;7.158;2023-11-21T06:07:52;11.20;69.30
13569;DHT22;6856;51.460;7.158;2023-11-21T06:10:28;11.20;69.30
13569;DHT22;6856;51.460;7.158;2023-11-21T06:13:02;11.20;69.20
13569;DHT22;6856;51.460;7.158;2023-11-21T06:15:37;11.30;69.30
13569;DHT22;6856;51.460;7.158;2023-11-21T06:18:12;11.20;69.20
13569;DHT22;6856;51.460;7.158;2023-11-21T06:20:46;11.20;69.20
13569;DHT22;6856;51.460;7.158;2023-11-21T06:23:20;11.10;69.10
13569;DHT22;6856;51.460;7.158;2023-11-21T06:25:54;11.40;69.30
13569;DHT22;6856;51.460;7.158;2023-11-21T06:28:29;11.20;69.20
13569;DHT22;6856;51.460;7.158;2023-11-21T06:31:05;11.20;69.20
13569;DHT22;6856;51.460;7.158;2023-11-21T06:33:39;11.20;69.40
13569;DHT22;6856;51.460;7.158;2023-11-21T06:36:13;11.20;69.20
13569;DHT22;6856;51.460;7.158;2023-11-21T06:38:47;11.10;69.20
13569;DHT22;6856;51.460;7.158;2023-11-21T06:41:21;11.10;69.30
13569;DHT22;6856;51.460;7.158;2023-11-21T06:43:56;11.20;69.30
13569;DHT22;6856;51.460;7.158;2023-11-21T06:46:32;11.10;69.40
13569;DHT22;6856;51.460;7.158;2023-11-21T06:49:06;11.10;69.40
13569;DHT22;6856;51.460;7.158;2023-11-21T06:51:39;11.10;69.40
13569;DHT22;6856;51.460;7.158;2023-11-21T06:54:13;11.20;69.50
13569;DHT22;6856;51.460;7.158;2023-11-21T06:56:47;11.20;69.50
13569;DHT22;6856;51.460;7.158;2023-11-21T06:59:20;11.30;69.60
13569;DHT22;6856;51.460;7.158;2023-11-21T07:01:57;11.20;69.40
13569;DHT22;6856;51.460;7.158;2023-11-21T07:04:31;11.10;69.50
13569;DHT22;6856;51.460;7.158;2023-11-21T07:07:06;11.20;69.70
13569;DHT22;6856;51.460;7.158;2023-11-21T07:09:40;11.20;69.80
13569;DHT22;6856;51.460;7.158;2023-11-21T07:12:15;11.20;69.90
13569;DHT22;6856;51.460;7.158;2023-11-21T07:14:49;11.20;69.90
13569;DHT22;6856;51.460;7.158;2023-11-21T07:17:27;11.50;70.30
13569;DHT22;6856;51.460;7.158;2023-11-21T07:20:00;11.20;70.20
13569;DHT22;6856;51.460;7.158;2023-11-21T07:22:39;11.20;70.30
13569;DHT22;6856;51.460;7.158;2023-11-21T07:25:12;11.20;70.40
13569;DHT22;6856;51.460;7.158;2023-11-21T07:27:48;11.30;70.50
13569;DHT22;6856;51.460;7.158;2023-11-21T07:30:22;11.20;70.40
13569;DHT22;6856;51.460;7.158;2023-11-21T07:32:57;11.30;70.60
13569;DHT22;6856;51.460;7.158;2023-11-21T07:35:31;11.50;70.80
13569;DHT22;6856;51.460;7.158;2023-11-21T07:38:06;11.30;70.60
13569;DHT22;6856;51.460;7.158;2023-11-21T07:40:40;11.30;70.50
13569;DHT22;6856;51.460;7.158;2023-11-21T07:43:15;11.30;70.50
13569;DHT22;6856;51.460;7.158;2023-11-21T07:45:48;11.30;70.30
13569;DHT22;6856;51.460;7.158;2023-11-21T07:48:23;11.30;70.30
13569;DHT22;6856;51.460;7.158;2023-11-21T07:50:57;11.40;70.40
13569;DHT22;6856;51.460;7.158;2023-11-21T07:53:32;11.40;70.50
13569;DHT22;6856;51.460;7.158;2023-11-21T07:56:07;11.40;70.40
13569;DHT22;6856;51.460;7.158;2023-11-21T07:58:43;11.40;70.40
13569;DHT22;6856;51.460;7.158;2023-11-21T08:01:17;11.30;70.40
13569;DHT22;6856;51.460;7.158;2023-11-21T08:03:52;11.40;70.60
13569;DHT22;6856;51.460;7.158;2023-11-21T08:06:29;11.40;70.60
13569;DHT22;6856;51.460;7.158;2023-11-21T08:09:03;11.40;70.80
13569;DHT22;6856;51.460;7.158;2023-11-21T08:11:36;11.40;70.80
13569;DHT22;6856;51.460;7.158;2023-11-21T08:14:10;11.40;71.00
13569;DHT22;6856;51.460;7.158;2023-11-21T08:16:44;11.40;71.10
13569;DHT22;6856;51.460;7.158;2023-11-21T08:19:20;11.60;71.30
13569;DHT22;6856;51.460;7.158;2023-11-21T08:22:01;11.50;71.30
13569;DHT22;6856;51.460;7.158;2023-11-21T08:24:37;11.50;71.40
13569;DHT22;6856;51.460;7.158;2023-11-21T08:27:10;11.50;71.50
13569;DHT22;6856;51.460;7.158;2023-11-21T08:29:48;11.50;71.60
13569;DHT22;6856;51.460;7.158;2023-11-21T08:32:22;11.70;71.70
13569;DHT22;6856;51.460;7.158;2023-11-21T08:34:58;11.60;71.60
13569;DHT22;6856;51.460;7.158;2023-11-21T08:37:31;11.60;71.80
13569;DHT22;6856;51.460;7.158;2023-11-21T08:40:10;11.60;71.70
13569;DHT22;6856;51.460;7.158;2023-11-21T08:42:49;11.60;71.80
13569;DHT22;6856;51.460;7.158;2023-11-21T08:45:25;11.60;71.70
13569;DHT22;6856;51.460;7.158;2023-11-21T08:47:58;11.60;71.80
13569;DHT22;6856;51.460;7.158;2023-11-21T08:50:36;11.60;71.80
13569;DHT22;6856;51.460;7.158;2023-11-21T08:53:09;11.60;71.90
13569;DHT22;6856;51.460;7.158;2023-11-21T08:55:44;11.70;72.00
13569;DHT22;6856;51.460;7.158;2023-11-21T08:58:17;11.60;72.00
13569;DHT22;6856;51.460;7.158;2023-11-21T09:00:51;11.60;72.00
13569;DHT22;6856;51.460;7.158;2023-11-21T09:03:25;11.60;72.10
13569;DHT22;6856;51.460;7.158;2023-11-21T09:06:02;11.60;72.10
13569;DHT22;6856;51.460;7.158;2023-11-21T09:08:36;11.60;72.20
13569;DHT22;6856;51.460;7.158;2023-11-21T09:11:10;11.60;72.30
13569;DHT22;6856;51.460;7.158;2023-11-21T09:13:43;11.70;72.50
13569;DHT22;6856;51.460;7.158;2023-11-21T09:16:21;11.70;72.50
13569;DHT22;6856;51.460;7.158;2023-11-21T09:18:55;12.00;72.70
13569;DHT22;6856;51.460;7.158;2023-11-21T09:21:34;11.70;72.60
13569;DHT22;6856;51.460;7.158;2023-11-21T09:24:08;11.80;72.70
13569;DHT22;6856;51.460;7.158;2023-11-21T09:26:42;11.80;72.80
13569;DHT22;6856;51.460;7.158;2023-11-21T09:29:18;11.90;72.70
13569;DHT22;6856;51.460;7.158;2023-11-21T09:31:52;11.80;72.80
13569;DHT22;6856;51.460;7.158;2023-11-21T09:34:27;11.90;72.90
13569;DHT22;6856;51.460;7.158;2023-11-21T09:37:03;12.00;73.00
13569;DHT22;6856;51.460;7.158;2023-11-21T09:39:38;11.90;73.00
13569;DHT22;6856;51.460;7.158;2023-11-21T09:42:17;11.90;72.90
13569;DHT22;6856;51.460;7.158;2023-11-21T09:45:03;12.00;73.10
13569;DHT22;6856;51.460;7.158;2023-11-21T09:47:39;12.00;73.10
13569;DHT22;6856;51.460;7.158;2023-11-21T09:50:16;12.00;73.00
13569;DHT22;6856;51.460;7.158;2023-11-21T09:53:00;12.00;73.10
13569;DHT22;6856;51.460;7.158;2023-11-21T09:55:48;12.30;73.20
13569;DHT22;6856;51.460;7.158;2023-11-21T09:58:23;12.10;73.00
13569;DHT22;6856;51.460;7.158;2023-11-21T10:00:59;12.10;73.00
13569;DHT22;6856;51.460;7.158;2023-11-21T10:03:35;12.10;73.00
13569;DHT22;6856;51.460;7.158;2023-11-21T10:06:13;12.10;73.00
13569;DHT22;6856;51.460;7.158;2023-11-21T10:08:49;12.30;73.10
13569;DHT22;6856;51.460;7.158;2023-11-21T10:11:27;12.10;73.10
13569;DHT22;6856;51.460;7.158;2023-11-21T10:14:03;12.10;73.20
13569;DHT22;6856;51.460;7.158;2023-11-21T10:16:40;12.10;73.20
13569;DHT22;6856;51.460;7.158;2023-11-21T10:19:15;12.20;73.30
13569;DHT22;6856;51.460;7.158;2023-11-21T10:21:50;12.20;73.20
13569;DHT22;6856;51.460;7.158;2023-11-21T10:24:26;12.20;73.30
13569;DHT22;6856;51.460;7.158;2023-11-21T10:27:12;12.20;73.20
13569;DHT22;6856;51.460;7.158;2023-11-21T10:29:47;12.30;73.30
13569;DHT22;6856;51.460;7.158;2023-11-21T10:32:28;12.30;73.40
13569;DHT22;6856;51.460;7.158;2023-11-21T10:35:05;12.30;73.40
13569;DHT22;6856;51.460;7.158;2023-11-21T10:37:42;12.30;73.40
13569;DHT22;6856;51.460;7.158;2023-11-21T10:40:17;12.40;73.30
13569;DHT22;6856;51.460;7.158;2023-11-21T10:42:51;12.40;73.30
13569;DHT22;6856;51.460;7.158;2023-11-21T10:45:26;12.40;73.20
13569;DHT22;6856;51.460;7.158;2023-11-21T10:48:01;12.40;73.40
13569;DHT22;6856;51.460;7.158;2023-11-21T10:50:38;12.50;73.60
13569;DHT22;6856;51.460;7.158;2023-11-21T10:53:11;12.50;73.50
13569;DHT22;6856;51.460;7.158;2023-11-21T10:55:48;12.60;73.60
13569;DHT22;6856;51.460;7.158;2023-11-21T10:58:22;12.60;73.60
13569;DHT22;6856;51.460;7.158;2023-11-21T11:00:56;12.60;73.50
13569;DHT22;6856;51.460;7.158;2023-11-21T11:03:31;12.90;73.80
13569;DHT22;6856;51.460;7.158;2023-11-21T11:06:07;12.70;73.50
13569;DHT22;6856;51.460;7.158;2023-11-21T11:08:44;12.70;73.40
13569;DHT22;6856;51.460;7.158;2023-11-21T11:11:19;12.80;73.30
13569;DHT22;6856;51.460;7.158;2023-11-21T11:13:54;12.80;72.90
13569;DHT22;6856;51.460;7.158;2023-11-21T11:16:29;13.10;73.00
13569;DHT22;6856;51.460;7.158;2023-11-21T11:19:02;12.90;72.80
13569;DHT22;6856;51.460;7.158;2023-11-21T11:21:46;12.90;72.80
13569;DHT22;6856;51.460;7.158;2023-11-21T11:24:45;12.90;73.00
13569;DHT22;6856;51.460;7.158;2023-11-21T11:27:40;12.90;72.90
13569;DHT22;6856;51.460;7.158;2023-11-21T11:30:36;12.90;72.90
13569;DHT22;6856;51.460;7.158;2023-11-21T11:33:29;12.90;72.70
13569;DHT22;6856;51.460;7.158;2023-11-21T11:36:15;13.00;72.60
13569;DHT22;6856;51.460;7.158;2023-11-21T11:38:54;13.00;72.70
13569;DHT22;6856;51.460;7.158;2023-11-21T11:41:30;13.00;72.60
13569;DHT22;6856;51.460;7.158;2023-11-21T11:47:26;13.00;72.90
13569;DHT22;6856;51.460;7.158;2023-11-21T11:50:08;13.00;72.80
13569;DHT22;6856;51.460;7.158;2023-11-21T11:52:46;13.10;72.90
13569;DHT22;6856;51.460;7.158;2023-11-21T11:55:23;13.10;72.90
13569;DHT22;6856;51.460;7.158;2023-11-21T11:58:06;13.10;72.90
13569;DHT22;6856;51.460;7.158;2023-11-21T12:00:42;13.10;72.80
13569;DHT22;6856;51.460;7.158;2023-11-21T12:03:18;13.20;72.80
13569;DHT22;6856;51.460;7.158;2023-11-21T12:05:53;13.20;72.80
13569;DHT22;6856;51.460;7.158;2023-11-21T12:08:30;13.40;72.80
13569;DHT22;6856;51.460;7.158;2023-11-21T12:11:05;13.20;72.60
13569;DHT22;6856;51.460;7.158;2023-11-21T12:13:39;13.20;72.50
13569;DHT22;6856;51.460;7.158;2023-11-21T12:16:14;13.20;72.40
13569;DHT22;6856;51.460;7.158;2023-11-21T12:18:48;13.20;73.10
13569;DHT22;6856;51.460;7.158;2023-11-21T12:21:22;13.20;72.30
13569;DHT22;6856;51.460;7.158;2023-11-21T12:23:56;13.20;72.20
13569;DHT22;6856;51.460;7.158;2023-11-21T12:26:30;13.20;72.10
13569;DHT22;6856;51.460;7.158;2023-11-21T12:29:04;13.50;72.30
13569;DHT22;6856;51.460;7.158;2023-11-21T12:31:41;13.20;72.10
13569;DHT22;6856;51.460;7.158;2023-11-21T12:34:14;13.20;72.00
13569;DHT22;6856;51.460;7.158;2023-11-21T12:36:50;13.20;71.90
13569;DHT22;6856;51.460;7.158;2023-11-21T12:39:26;13.20;71.90
13569;DHT22;6856;51.460;7.158;2023-11-21T12:42:02;13.20;71.80
13569;DHT22;6856;51.460;7.158;2023-11-21T12:44:39;13.20;71.80
13569;DHT22;6856;51.460;7.158;2023-11-21T12:47:19;13.20;71.90
13569;DHT22;6856;51.460;7.158;2023-11-21T12:49:53;13.30;72.10
13569;DHT22;6856;51.460;7.158;2023-11-21T12:52:27;13.20;71.90
13569;DHT22;6856;51.460;7.158;2023-11-21T12:55:04;13.20;71.90
13569;DHT22;6856;51.460;7.158;2023-11-21T12:57:41;13.20;72.10
13569;DHT22;6856;51.460;7.158;2023-11-21T13:00:16;13.20;72.10
13569;DHT22;6856;51.460;7.158;2023-11-21T13:03:01;13.20;71.90
13569;DHT22;6856;51.460;7.158;2023-11-21T13:05:36;13.20;72.70
13569;DHT22;6856;51.460;7.158;2023-11-21T13:08:12;13.20;72.00
13569;DHT22;6856;51.460;7.158;2023-11-21T13:10:52;13.20;72.10
13569;DHT22;6856;51.460;7.158;2023-11-21T13:13:28;13.20;72.10
13569;DHT22;6856;51.460;7.158;2023-11-21T13:16:04;13.20;72.10
13569;DHT22;6856;51.460;7.158;2023-11-21T13:18:41;13.10;71.90
13569;DHT22;6856;51.460;7.158;2023-11-21T13:21:16;13.20;72.00
13569;DHT22;6856;51.460;7.158;2023-11-21T13:23:49;13.10;71.90
13569;DHT22;6856;51.460;7.158;2023-11-21T13:26:25;13.10;71.90
13569;DHT22;6856;51.460;7.158;2023-11-21T13:28:58;13.10;71.90
13569;DHT22;6856;51.460;7.158;2023-11-21T13:31:34;13.10;71.90
13569;DHT22;6856;51.460;7.158;2023-11-21T13:34:10;13.10;71.90
13569;DHT22;6856;51.460;7.158;2023-11-21T13:36:51;13.10;71.90
13569;DHT22;6856;51.460;7.158;2023-11-21T13:39:32;13.10;71.90
13569;DHT22;6856;51.460;7.158;2023-11-21T13:42:05;13.10;71.90
13569;DHT22;6856;51.460;7.158;2023-11-21T13:44:39;13.10;72.00
13569;DHT22;6856;51.460;7.158;2023-11-21T13:47:16;13.10;71.90
13569;DHT22;6856;51.460;7.158;2023-11-21T13:49:51;13.00;71.80
13569;DHT22;6856;51.460;7.158;2023-11-21T13:52:25;13.00;71.80
13569;DHT22;6856;51.460;7.158;2023-11-21T13:55:00;13.00;71.80
13569;DHT22;6856;51.460;7.158;2023-11-21T13:57:38;13.00;71.80
13569;DHT22;6856;51.460;7.158;2023-11-21T14:00:13;13.00;71.80
13569;DHT22;6856;51.460;7.158;2023-11-21T14:03:09;13.00;71.90
13569;DHT22;6856;51.460;7.158;2023-11-21T14:05:51;12.90;71.80
13569;DHT22;6856;51.460;7.158;2023-11-21T14:08:24;12.90;72.00
13569;DHT22;6856;51.460;7.158;2023-11-21T14:11:00;13.00;72.20
13569;DHT22;6856;51.460;7.158;2023-11-21T14:13:34;12.90;72.10
13569;DHT22;6856;51.460;7.158;2023-11-21T14:16:11;13.00;72.10
13569;DHT22;6856;51.460;7.158;2023-11-21T14:18:46;13.00;72.20
13569;DHT22;6856;51.460;7.158;2023-11-21T14:21:29;12.90;72.10
13569;DHT22;6856;51.460;7.158;2023-11-21T14:24:05;12.90;72.10
13569;DHT22;6856;51.460;7.158;2023-11-21T14:26:41;12.90;72.10
13569;DHT22;6856;51.460;7.158;2023-11-21T14:29:19;12.90;72.10
13569;DHT22;6856;51.460;7.158;2023-11-21T14:31:54;12.90;72.10
13569;DHT22;6856;51.460;7.158;2023-11-21T14:34:30;12.80;71.90
13569;DHT22;6856;51.460;7.158;2023-11-21T14:37:06;12.80;71.80
13569;DHT22;6856;51.460;7.158;2023-11-21T14:39:39;12.80;71.70
13569;DHT22;6856;51.460;7.158;2023-11-21T14:42:16;12.80;71.70
13569;DHT22;6856;51.460;7.158;2023-11-21T14:44:56;13.00;71.80
13569;DHT22;6856;51.460;7.158;2023-11-21T14:47:35;12.80;71.50
13569;DHT22;6856;51.460;7.158;2023-11-21T14:50:10;12.70;71.50
13569;DHT22;6856;51.460;7.158;2023-11-21T14:53:13;12.90;71.60
13569;DHT22;6856;51.460;7.158;2023-11-21T14:55:46;12.70;71.40
13569;DHT22;6856;51.460;7.158;2023-11-21T14:58:29;12.70;71.40
13569;DHT22;6856;51.460;7.158;2023-11-21T15:01:03;12.90;71.40
13569;DHT22;6856;51.460;7.158;2023-11-21T15:03:36;12.70;71.30
13569;DHT22;6856;51.460;7.158;2023-11-21T15:06:20;12.70;71.30
13569;DHT22;6856;51.460;7.158;2023-11-21T15:09:00;12.70;71.30
13569;DHT22;6856;51.460;7.158;2023-11-21T15:11:51;12.70;72.00
13569;DHT22;6856;51.460;7.158;2023-11-21T15:14:30;12.70;71.20
13569;DHT22;6856;51.460;7.158;2023-11-21T15:17:06;12.60;71.10
13569;DHT22;6856;51.460;7.158;2023-11-21T15:19:40;12.60;71.10
13569;DHT22;6856;51.460;7.158;2023-11-21T15:22:17;12.60;71.00
13569;DHT22;6856;51.460;7.158;2023-11-21T15:24:53;12.60;70.90
13569;DHT22;6856;51.460;7.158;2023-11-21T15:27:28;12.60;70.80
13569;DHT22;6856;51.460;7.158;2023-11-21T15:30:02;12.60;70.70
13569;DHT22;6856;51.460;7.158;2023-11-21T15:32:36;12.50;70.70
13569;DHT22;6856;51.460;7.158;2023-11-21T15:35:11;12.50;70.60
13569;DHT22;6856;51.460;7.158;2023-11-21T15:37:46;12.50;70.50
13569;DHT22;6856;51.460;7.158;2023-11-21T15:40:22;12.50;70.50
13569;DHT22;6856;51.460;7.158;2023-11-21T15:42:55;12.70;70.50
13569;DHT22;6856;51.460;7.158;2023-11-21T15:45:30;12.40;70.30
13569;DHT22;6856;51.460;7.158;2023-11-21T15:48:04;12.40;71.00
13569;DHT22;6856;51.460;7.158;2023-11-21T15:50:40;12.40;70.40
13569;DHT22;6856;51.460;7.158;2023-11-21T15:53:15;12.50;70.50
13569;DHT22;6856;51.460;7.158;2023-11-21T15:55:50;12.40;70.30
13569;DHT22;6856;51.460;7.158;2023-11-21T15:58:24;12.40;70.20
13569;DHT22;6856;51.460;7.158;2023-11-21T16:00:58;12.30;70.30
13569;DHT22;6856;51.460;7.158;2023-11-21T16:03:31;12.30;70.30
13569;DHT22;6856;51.460;7.158;2023-11-21T16:06:06;12.30;70.30
13569;DHT22;6856;51.460;7.158;2023-11-21T16:08:41;12.30;70.30
13569;DHT22;6856;51.460;7.158;2023-11-21T16:11:16;12.30;70.10
13569;DHT22;6856;51.460;7.158;2023-11-21T16:13:50;12.20;70.10
13569;DHT22;6856;51.460;7.158;2023-11-21T16:16:25;12.20;70.10
13569;DHT22;6856;51.460;7.158;2023-11-21T16:18:59;12.20;70.00
13569;DHT22;6856;51.460;7.158;2023-11-21T16:21:32;12.20;69.90
13569;DHT22;6856;51.460;7.158;2023-11-21T16:24:07;12.10;69.80
13569;DHT22;6856;51.460;7.158;2023-11-21T16:26:44;12.10;69.90
13569;DHT22;6856;51.460;7.158;2023-11-21T16:29:19;12.00;69.80
13569;DHT22;6856;51.460;7.158;2023-11-21T16:31:53;12.00;69.60
13569;DHT22;6856;51.460;7.158;2023-11-21T16:34:28;12.00;69.30
13569;DHT22;6856;51.460;7.158;2023-11-21T16:37:02;11.90;69.10
13569;DHT22;6856;51.460;7.158;2023-11-21T16:39:42;11.90;69.10
13569;DHT22;6856;51.460;7.158;2023-11-21T16:42:18;11.90;69.00